Time;durP1;ratioP1;P1;durP2;ratioP2;P2;SDS_P1;SDS_P2;PMS_P1;PMS_P2;Temp;Humidity;BMP_temperature;BMP_pressure;BME280_temperature;BME280_humidity;BME280_pressure;Samples;Min_cycle;Max_cycle;Signal;HPM_P1;HPM_P2
2021/03/14 00:02:15;;;;;;;5.32;1.15;;;6.10;99.90;;;;;;5019377;28;20037;-65
2021/03/14 00:04:41;;;;;;;11.95;2.17;;;6.20;99.90;;;;;;5016336;28;20038;-66
2021/03/14 00:07:07;;;;;;;11.27;0.90;;;6.20;99.90;;;;;;5013472;28;20029;-65
2021/03/14 00:09:33;;;;;;;8.95;2.35;;;6.20;99.90;;;;;;5011567;28;20435;-64
2021/03/14 00:11:59;;;;;;;13.73;2.63;;;6.20;99.90;;;;;;5019881;28;20576;-67
2021/03/14 00:14:25;;;;;;;5.18;1.30;;;6.20;99.90;;;;;;5017777;28;20034;-67
2021/03/14 00:16:54;;;;;;;7.78;1.13;;;6.20;99.90;;;;;;5017012;28;20490;-64
2021/03/14 00:19:20;;;;;;;7.65;1.10;;;6.30;99.90;;;;;;5019301;28;20037;-66
2021/03/14 00:21:46;;;;;;;16.15;1.17;;;6.20;99.90;;;;;;4999768;28;20110;-66
2021/03/14 00:24:12;;;;;;;8.43;1.52;;;6.30;99.90;;;;;;5018689;28;20404;-65
2021/03/14 00:26:37;;;;;;;11.93;1.27;;;6.30;99.90;;;;;;5017366;28;20108;-64
2021/03/14 00:29:05;;;;;;;9.25;1.20;;;6.30;99.90;;;;;;5018225;28;20128;-67
2021/03/14 00:31:31;;;;;;;7.93;0.93;;;6.30;99.90;;;;;;5017165;28;20037;-65
2021/03/14 00:33:56;;;;;;;10.35;1.63;;;6.30;99.90;;;;;;5015775;28;20033;-65
2021/03/14 00:36:22;;;;;;;37.35;3.45;;;6.30;99.90;;;;;;5014496;28;20026;-65
2021/03/14 00:38:48;;;;;;;7.20;1.58;;;6.30;99.90;;;;;;5017074;28;20030;-64
2021/03/14 00:41:13;;;;;;;10.30;1.08;;;6.30;99.90;;;;;;5013162;28;20092;-66
2021/03/14 00:43:39;;;;;;;9.82;1.13;;;6.30;99.90;;;;;;5017432;28;20022;-66
2021/03/14 00:46:04;;;;;;;10.15;1.23;;;6.30;99.90;;;;;;5016041;28;20505;-65
2021/03/14 00:48:30;;;;;;;8.13;1.38;;;6.30;99.90;;;;;;5018077;28;20034;-64
2021/03/14 00:50:56;;;;;;;10.65;1.65;;;6.30;99.90;;;;;;5015535;28;20026;-66
2021/03/14 00:53:21;;;;;;;5.60;0.90;;;6.30;99.90;;;;;;5021090;28;20025;-66
2021/03/14 00:55:47;;;;;;;4.88;0.95;;;6.30;99.90;;;;;;5016486;28;20337;-65
2021/03/14 00:58:13;;;;;;;5.65;1.80;;;6.40;99.90;;;;;;5017055;28;20037;-66
2021/03/14 01:00:39;;;;;;;11.00;2.38;;;6.40;99.90;;;;;;5011068;28;20109;-65
2021/03/14 01:03:05;;;;;;;11.40;0.95;;;6.30;99.90;;;;;;5016862;28;20546;-66
2021/03/14 01:05:31;;;;;;;11.35;2.65;;;6.30;99.90;;;;;;5014755;28;20032;-67
2021/03/14 01:07:56;;;;;;;11.02;1.15;;;6.30;99.90;;;;;;5014611;28;20034;-67
2021/03/14 01:10:22;;;;;;;10.15;1.25;;;6.30;99.90;;;;;;5018075;28;20502;-67
2021/03/14 01:12:48;;;;;;;11.93;1.10;;;6.30;99.90;;;;;;5016081;28;20421;-67
2021/03/14 01:15:14;;;;;;;11.65;1.27;;;6.30;99.90;;;;;;5015073;28;20036;-66
2021/03/14 01:17:40;;;;;;;8.70;0.80;;;6.40;99.90;;;;;;5013903;28;20034;-67
2021/03/14 01:20:12;;;;;;;10.57;1.48;;;6.40;99.90;;;;;;5015955;28;20112;-67
2021/03/14 01:22:38;;;;;;;8.98;0.93;;;6.40;99.90;;;;;;5014442;28;20117;-66
2021/03/14 01:25:06;;;;;;;9.98;1.25;;;6.50;99.90;;;;;;5016590;28;20041;-66
2021/03/14 01:27:31;;;;;;;12.80;0.93;;;6.40;99.90;;;;;;5014415;28;20536;-67
2021/03/14 01:29:57;;;;;;;6.70;1.25;;;6.40;99.90;;;;;;5019330;28;20033;-66
2021/03/14 01:32:22;;;;;;;9.10;1.48;;;6.30;99.90;;;;;;5014412;28;20092;-67
2021/03/14 01:34:49;;;;;;;14.30;1.85;;;6.40;99.90;;;;;;5017291;28;20032;-65
2021/03/14 01:37:16;;;;;;;15.07;1.40;;;6.30;99.90;;;;;;5016769;28;20071;-65
2021/03/14 01:39:41;;;;;;;10.38;1.70;;;6.40;99.90;;;;;;5014299;28;20056;-65
2021/03/14 01:42:07;;;;;;;19.80;1.50;;;6.40;99.90;;;;;;5016038;28;20493;-66
2021/03/14 01:44:33;;;;;;;15.77;1.75;;;6.30;99.90;;;;;;5016942;28;20086;-66
2021/03/14 01:46:59;;;;;;;11.43;1.98;;;6.30;99.90;;;;;;5014468;28;20103;-66
2021/03/14 01:49:25;;;;;;;4.97;0.90;;;6.20;99.90;;;;;;5019763;28;20119;-66
2021/03/14 01:51:51;;;;;;;7.95;1.20;;;6.20;99.90;;;;;;5014181;28;20041;-65
2021/03/14 01:54:17;;;;;;;12.27;1.40;;;6.20;99.90;;;;;;5022306;28;20033;-66
2021/03/14 01:56:42;;;;;;;19.70;3.28;;;6.20;99.90;;;;;;5018868;28;20520;-66
2021/03/14 01:59:08;;;;;;;16.48;1.80;;;6.20;99.90;;;;;;5021154;28;20038;-66
2021/03/14 02:01:33;;;;;;;8.00;1.92;;;6.10;99.90;;;;;;5021262;28;20041;-65
2021/03/14 02:03:59;;;;;;;7.05;1.40;;;6.20;99.90;;;;;;5019174;28;20081;-66
2021/03/14 02:06:25;;;;;;;7.32;0.90;;;6.10;99.90;;;;;;5015347;28;20041;-66
2021/03/14 02:08:50;;;;;;;19.08;2.80;;;6.20;99.90;;;;;;5018592;28;20033;-66
2021/03/14 02:11:16;;;;;;;10.20;1.48;;;6.20;99.90;;;;;;5020845;28;20021;-66
2021/03/14 02:13:48;;;;;;;8.10;1.05;;;6.30;99.90;;;;;;5019325;28;20402;-67
2021/03/14 02:16:18;;;;;;;13.10;1.17;;;6.20;99.90;;;;;;5021835;28;20041;-66
2021/03/14 02:18:49;;;;;;;10.68;2.17;;;6.10;99.90;;;;;;5019124;28;20038;-66
2021/03/14 02:21:15;;;;;;;9.77;1.50;;;6.10;99.90;;;;;;5021544;28;20048;-66
2021/03/14 02:23:56;;;;;;;14.30;2.55;;;6.10;99.90;;;;;;5019718;28;20033;-66
2021/03/14 02:26:28;;;;;;;9.02;1.65;;;6.10;99.90;;;;;;5014057;28;20064;-66
2021/03/14 02:28:55;;;;;;;8.52;1.10;;;6.00;99.90;;;;;;5015820;28;20586;-67
2021/03/14 02:31:22;;;;;;;14.55;3.13;;;6.00;99.90;;;;;;5020329;28;20036;-64
2021/03/14 02:34:04;;;;;;;13.35;1.40;;;5.90;99.90;;;;;;5014457;28;20030;-66
2021/03/14 02:36:31;;;;;;;14.40;2.40;;;5.80;99.90;;;;;;5014788;28;20030;-65
2021/03/14 02:38:58;;;;;;;13.20;1.95;;;5.80;99.90;;;;;;5017115;28;20033;-64
2021/03/14 02:41:24;;;;;;;9.35;1.35;;;5.70;99.90;;;;;;5020557;28;20432;-66
2021/03/14 02:43:51;;;;;;;4.75;1.25;;;5.70;99.90;;;;;;5017822;28;20105;-65
2021/03/14 02:46:18;;;;;;;12.65;1.77;;;5.60;99.90;;;;;;5013667;28;20030;-66
2021/03/14 02:48:44;;;;;;;17.30;2.65;;;5.60;99.90;;;;;;5035779;22;20045;-65
2021/03/14 02:51:11;;;;;;;6.97;1.60;;;5.60;99.90;;;;;;5039464;28;20103;-65
2021/03/14 02:53:38;;;;;;;7.00;1.33;;;5.60;99.90;;;;;;5037850;28;20029;-65
2021/03/14 02:56:04;;;;;;;10.50;1.70;;;5.60;99.90;;;;;;5043016;28;20032;-65
2021/03/14 02:58:31;;;;;;;11.75;2.78;;;5.50;99.90;;;;;;5041056;28;20049;-65
2021/03/14 03:00:57;;;;;;;18.40;1.38;;;5.60;99.90;;;;;;5037228;28;20041;-65
2021/03/14 03:03:24;;;;;;;8.63;1.45;;;5.50;99.90;;;;;;5040727;28;20025;-65
2021/03/14 03:05:56;;;;;;;6.07;1.17;;;5.50;99.90;;;;;;5037913;28;20037;-65
2021/03/14 03:08:23;;;;;;;7.43;1.48;;;5.50;99.90;;;;;;5034121;28;20033;-65
2021/03/14 03:10:50;;;;;;;15.27;2.10;;;5.50;99.90;;;;;;5041476;28;20478;-65
2021/03/14 03:13:16;;;;;;;12.05;1.60;;;5.50;99.90;;;;;;5033306;28;20038;-67
2021/03/14 03:15:43;;;;;;;8.75;1.17;;;5.50;99.90;;;;;;5036369;28;20041;-65
2021/03/14 03:18:10;;;;;;;32.80;2.45;;;5.40;99.90;;;;;;5038655;28;20502;-65
2021/03/14 03:20:37;;;;;;;6.97;1.17;;;5.40;99.90;;;;;;5037186;28;20677;-65
2021/03/14 03:23:03;;;;;;;11.48;1.30;;;5.50;99.90;;;;;;5039624;28;20033;-65
2021/03/14 03:25:29;;;;;;;8.63;1.20;;;5.50;99.90;;;;;;5039610;28;20546;-65
2021/03/14 03:27:54;;;;;;;7.43;1.05;;;5.50;99.90;;;;;;5038679;28;20030;-66
2021/03/14 03:30:22;;;;;;;14.93;2.08;;;5.50;99.90;;;;;;5041387;28;20033;-65
2021/03/14 03:32:48;;;;;;;6.03;0.88;;;5.60;99.90;;;;;;5037192;28;20465;-65
2021/03/14 03:35:16;;;;;;;7.82;1.25;;;5.60;99.90;;;;;;5041255;28;20501;-66
2021/03/14 03:37:42;;;;;;;5.18;1.45;;;5.60;99.90;;;;;;5042843;28;20036;-65
2021/03/14 03:40:11;;;;;;;13.55;1.38;;;5.60;99.90;;;;;;5046830;28;20496;-66
2021/03/14 03:42:46;;;;;;;5.85;0.77;;;5.70;99.90;;;;;;5049451;28;20034;-66
2021/03/14 03:45:12;;;;;;;11.00;1.50;;;5.70;99.90;;;;;;5048084;28;20071;-66
2021/03/14 03:47:42;;;;;;;12.27;1.92;;;5.70;99.90;;;;;;5039247;28;20048;-65
2021/03/14 03:50:09;;;;;;;5.75;1.65;;;5.70;99.90;;;;;;5037954;28;20037;-65
2021/03/14 03:52:36;;;;;;;11.85;1.15;;;5.80;99.90;;;;;;5038663;28;20103;-65
2021/03/14 03:55:02;;;;;;;10.65;1.88;;;5.80;99.90;;;;;;5038260;28;20056;-65
2021/03/14 03:57:28;;;;;;;9.30;1.00;;;5.80;99.90;;;;;;5036210;28;20448;-65
2021/03/14 03:59:54;;;;;;;10.65;1.35;;;5.80;99.90;;;;;;5037938;28;20032;-65
2021/03/14 04:02:23;;;;;;;18.58;4.03;;;5.80;99.90;;;;;;5035728;28;20413;-65
2021/03/14 04:04:48;;;;;;;9.45;1.15;;;5.80;99.90;;;;;;5039249;28;20029;-65
2021/03/14 04:07:14;;;;;;;8.55;1.10;;;5.80;99.90;;;;;;5036541;28;20573;-65
2021/03/14 04:09:43;;;;;;;10.95;0.98;;;5.80;99.90;;;;;;5039409;28;20036;-65
2021/03/14 04:12:10;;;;;;;15.45;2.42;;;5.80;99.90;;;;;;5035584;28;20056;-65
2021/03/14 04:14:36;;;;;;;8.68;1.13;;;5.80;99.90;;;;;;5037452;28;20033;-65
2021/03/14 04:17:05;;;;;;;10.73;1.52;;;5.70;99.90;;;;;;5038979;28;20029;-65
2021/03/14 04:19:33;;;;;;;9.13;1.15;;;5.80;99.90;;;;;;5038385;28;20497;-65
2021/03/14 04:22:00;;;;;;;8.40;0.82;;;5.80;99.90;;;;;;5037527;28;20102;-65
2021/03/14 04:24:28;;;;;;;5.80;0.95;;;5.70;99.90;;;;;;5035917;28;20033;-65
2021/03/14 04:26:55;;;;;;;4.53;0.93;;;5.70;99.90;;;;;;5038363;28;20033;-65
2021/03/14 04:29:21;;;;;;;6.13;1.38;;;5.60;99.90;;;;;;5035191;28;20041;-65
2021/03/14 04:31:49;;;;;;;5.38;0.70;;;5.50;99.90;;;;;;5039584;28;20501;-65
2021/03/14 04:34:17;;;;;;;7.93;1.15;;;5.40;99.90;;;;;;5038289;28;20037;-65
2021/03/14 04:36:45;;;;;;;3.90;0.60;;;5.30;99.90;;;;;;5030780;28;20481;-69
2021/03/14 04:39:12;;;;;;;3.85;0.82;;;5.20;99.90;;;;;;5036727;28;20044;-65
2021/03/14 04:41:40;;;;;;;10.45;1.02;;;5.20;99.90;;;;;;5034516;28;20660;-65
2021/03/14 04:44:08;;;;;;;10.60;0.88;;;5.20;99.90;;;;;;5038434;28;20036;-65
2021/03/14 04:46:33;;;;;;;6.32;1.00;;;5.20;99.90;;;;;;5035521;28;20033;-65
2021/03/14 04:48:59;;;;;;;17.73;2.47;;;5.20;99.90;;;;;;5035453;28;20056;-65
2021/03/14 04:51:27;;;;;;;5.80;0.63;;;5.20;99.90;;;;;;5035653;28;20076;-65
2021/03/14 04:53:54;;;;;;;7.10;1.08;;;5.20;99.90;;;;;;5037786;28;20029;-65
2021/03/14 04:56:21;;;;;;;7.32;1.95;;;5.20;99.90;;;;;;5032345;28;20094;-65
2021/03/14 04:58:50;;;;;;;13.68;1.20;;;5.20;99.90;;;;;;5034399;28;20037;-67
2021/03/14 05:01:19;;;;;;;15.73;1.35;;;5.30;99.90;;;;;;5037747;28;20045;-65
2021/03/14 05:03:46;;;;;;;10.43;1.20;;;5.30;99.90;;;;;;5035785;28;20033;-65
2021/03/14 05:06:16;;;;;;;8.02;1.58;;;5.30;99.90;;;;;;5032504;28;20490;-65
2021/03/14 05:08:44;;;;;;;4.32;1.42;;;5.30;99.90;;;;;;5032428;28;20478;-65
2021/03/14 05:11:09;;;;;;;2.92;1.00;;;5.20;99.90;;;;;;5030804;28;20269;-65
2021/03/14 05:13:38;;;;;;;4.10;0.93;;;5.10;99.90;;;;;;5036734;28;20029;-65
2021/03/14 05:16:04;;;;;;;7.50;1.75;;;5.10;99.90;;;;;;5038052;28;20177;-65
2021/03/14 05:18:30;;;;;;;7.55;1.23;;;5.10;99.90;;;;;;5037078;28;20025;-65
2021/03/14 05:20:57;;;;;;;4.05;1.60;;;5.10;99.90;;;;;;5037195;28;20038;-65
2021/03/14 05:23:23;;;;;;;8.55;1.10;;;5.10;99.90;;;;;;5038747;28;20035;-65
2021/03/14 05:25:50;;;;;;;5.45;0.98;;;5.10;99.90;;;;;;5040392;28;20029;-65
2021/03/14 05:28:19;;;;;;;4.78;0.85;;;5.10;99.90;;;;;;5042337;28;20025;-65
2021/03/14 05:30:44;;;;;;;9.75;1.48;;;5.10;99.90;;;;;;5038001;28;20255;-65
2021/03/14 05:33:11;;;;;;;6.40;0.90;;;5.10;99.90;;;;;;5039292;28;20586;-65
2021/03/14 05:35:37;;;;;;;11.52;1.55;;;5.20;99.90;;;;;;5042922;28;20033;-65
2021/03/14 05:38:03;;;;;;;12.80;1.88;;;5.10;99.90;;;;;;5031634;28;20025;-65
2021/03/14 05:40:29;;;;;;;10.85;1.40;;;5.20;99.90;;;;;;5042145;28;20037;-65
2021/03/14 05:42:57;;;;;;;4.60;1.25;;;5.20;99.90;;;;;;5037593;28;20125;-65
2021/03/14 05:45:23;;;;;;;7.45;0.80;;;5.20;99.90;;;;;;5040995;28;20071;-65
2021/03/14 05:47:49;;;;;;;8.13;1.67;;;5.20;99.90;;;;;;5043466;28;20521;-64
2021/03/14 05:50:21;;;;;;;10.82;2.20;;;5.20;99.90;;;;;;5039015;28;20040;-65
2021/03/14 05:52:49;;;;;;;8.65;1.13;;;5.20;99.90;;;;;;5039836;28;20035;-65
2021/03/14 05:55:19;;;;;;;6.60;0.75;;;5.30;99.90;;;;;;5043279;28;20561;-65
2021/03/14 05:57:47;;;;;;;8.68;1.90;;;5.30;99.90;;;;;;5042839;28;20041;-65
2021/03/14 06:00:22;;;;;;;9.57;1.83;;;5.30;99.90;;;;;;5039961;28;20040;-65
2021/03/14 06:02:47;;;;;;;10.48;1.27;;;5.30;99.90;;;;;;5042821;28;20037;-64
2021/03/14 06:05:14;;;;;;;10.60;1.52;;;5.30;99.90;;;;;;5042942;28;20451;-65
2021/03/14 06:07:40;;;;;;;7.53;1.25;;;5.30;99.90;;;;;;5039185;28;20033;-64
2021/03/14 06:10:06;;;;;;;10.75;1.60;;;5.40;99.90;;;;;;5032603;28;20025;-65
2021/03/14 06:12:32;;;;;;;8.82;1.17;;;5.40;99.90;;;;;;5038591;28;20064;-64
2021/03/14 06:14:58;;;;;;;10.10;1.10;;;5.40;99.90;;;;;;5045547;28;20040;-64
2021/03/14 06:17:26;;;;;;;6.68;1.75;;;5.50;99.90;;;;;;5038497;28;20416;-64
2021/03/14 06:19:51;;;;;;;10.73;1.27;;;5.50;99.90;;;;;;5040378;28;20029;-64
2021/03/14 06:22:24;;;;;;;6.63;1.13;;;5.50;99.90;;;;;;5040663;28;20091;-65
2021/03/14 06:24:51;;;;;;;7.63;1.92;;;5.50;99.90;;;;;;5041719;28;20044;-65
2021/03/14 06:27:37;;;;;;;8.07;1.73;;;5.60;99.90;;;;;;5040467;28;20029;-65
2021/03/14 06:30:09;;;;;;;8.63;1.38;;;5.60;99.90;;;;;;5041800;28;20029;-64
2021/03/14 06:32:36;;;;;;;6.60;1.48;;;5.60;99.90;;;;;;5034256;28;20087;-65
2021/03/14 06:35:22;;;;;;;7.78;1.48;;;5.60;99.90;;;;;;5041488;28;20400;-65
2021/03/14 06:37:47;;;;;;;9.25;1.58;;;5.60;99.90;;;;;;5035815;28;20037;-65
2021/03/14 06:40:15;;;;;;;7.75;1.40;;;5.60;99.90;;;;;;5037703;28;20520;-65
2021/03/14 06:42:42;;;;;;;8.43;1.70;;;5.70;99.90;;;;;;5038764;28;20465;-65
2021/03/14 06:45:15;;;;;;;7.47;1.52;;;5.70;99.90;;;;;;5041419;28;20079;-64
2021/03/14 06:47:45;;;;;;;9.77;2.42;;;5.70;99.90;;;;;;5033138;28;20095;-64
2021/03/14 06:50:19;;;;;;;11.15;2.72;;;5.80;99.90;;;;;;5042395;28;20111;-65
2021/03/14 06:53:17;;;;;;;11.98;2.22;;;5.80;99.90;;;;;;5037147;28;20117;-64
2021/03/14 06:55:44;;;;;;;11.70;2.80;;;5.80;99.90;;;;;;5035248;28;20057;-65
2021/03/14 06:58:36;;;;;;;13.60;2.72;;;5.90;99.90;;;;;;5036776;28;20060;-65
2021/03/14 07:01:17;;;;;;;8.65;2.28;;;6.00;99.90;;;;;;5036861;28;20048;-65
2021/03/14 07:03:43;;;;;;;10.57;2.15;;;6.10;99.90;;;;;;5034449;28;20489;-65
2021/03/14 07:06:26;;;;;;;14.65;2.42;;;6.00;99.90;;;;;;5028080;28;20578;-65
2021/03/14 07:08:57;;;;;;;19.67;2.28;;;6.20;99.90;;;;;;5035088;28;20466;-65
2021/03/14 07:11:40;;;;;;;5.85;1.40;;;6.20;99.90;;;;;;5036468;28;20377;-65
2021/03/14 07:14:10;;;;;;;9.70;1.77;;;6.20;99.90;;;;;;5027136;28;20082;-64
2021/03/14 07:16:44;;;;;;;21.08;2.78;;;6.20;99.90;;;;;;5033288;28;20029;-65
2021/03/14 07:19:15;;;;;;;12.60;2.00;;;6.20;99.90;;;;;;5041730;28;20103;-67
2021/03/14 07:21:41;;;;;;;10.07;2.00;;;6.20;99.90;;;;;;5043384;28;20037;-66
2021/03/14 07:24:37;;;;;;;10.40;1.77;;;6.30;99.90;;;;;;5046238;28;20042;-66
2021/03/14 07:27:06;;;;;;;7.35;1.60;;;6.40;99.90;;;;;;5047260;28;20541;-65
2021/03/14 07:29:34;;;;;;;14.57;2.97;;;6.60;99.90;;;;;;5034698;28;20033;-65
2021/03/14 07:32:00;;;;;;;13.23;2.38;;;6.70;99.90;;;;;;5040620;28;20276;-65
2021/03/14 07:34:26;;;;;;;11.18;2.05;;;6.90;99.90;;;;;;5036868;28;20462;-65
2021/03/14 07:36:53;;;;;;;4.63;1.65;;;7.00;99.90;;;;;;5037898;28;20067;-65
2021/03/14 07:39:18;;;;;;;8.57;2.03;;;7.20;99.90;;;;;;5034485;28;20045;-65
2021/03/14 07:41:45;;;;;;;8.35;1.83;;;7.40;99.90;;;;;;5032962;28;20433;-65
2021/03/14 07:44:11;;;;;;;10.85;2.97;;;7.50;99.90;;;;;;5037757;28;20107;-65
2021/03/14 07:46:41;;;;;;;4.63;2.03;;;7.60;99.90;;;;;;5040358;28;20058;-65
2021/03/14 07:49:10;;;;;;;16.10;2.28;;;7.60;99.90;;;;;;5036233;28;20033;-65
2021/03/14 07:51:37;;;;;;;10.68;2.22;;;7.70;99.90;;;;;;5037326;28;20027;-65
2021/03/14 07:54:06;;;;;;;12.30;2.40;;;7.70;99.90;;;;;;5036301;28;20073;-65
2021/03/14 07:56:36;;;;;;;6.53;1.73;;;7.70;99.90;;;;;;5033435;28;20456;-65
2021/03/14 07:59:02;;;;;;;9.10;1.58;;;7.60;99.90;;;;;;5032391;28;20026;-65
2021/03/14 08:01:35;;;;;;;7.45;2.28;;;7.50;99.90;;;;;;5038894;28;20037;-65
2021/03/14 08:04:01;;;;;;;14.18;2.53;;;7.40;99.90;;;;;;5034147;28;20037;-65
2021/03/14 08:06:53;;;;;;;11.90;2.17;;;7.40;99.90;;;;;;5036807;28;20065;-65
2021/03/14 08:09:43;;;;;;;12.07;2.15;;;7.40;99.90;;;;;;5034428;28;20045;-65
2021/03/14 08:12:23;;;;;;;16.30;2.45;;;7.50;99.90;;;;;;5035818;28;20037;-65
2021/03/14 08:14:54;;;;;;;8.13;2.53;;;7.40;99.90;;;;;;5037423;28;20397;-65
2021/03/14 08:17:25;;;;;;;9.57;2.10;;;7.40;99.90;;;;;;5037902;28;20457;-65
2021/03/14 08:19:51;;;;;;;;;;;7.40;99.90;;;;;;5039683;28;20029;-65
2021/03/14 08:22:39;;;;;;;12.05;2.08;;;7.40;99.90;;;;;;5037550;28;20308;-64
2021/03/14 08:25:24;;;;;;;9.00;3.00;;;7.40;99.90;;;;;;5025391;28;20026;-65
2021/03/14 08:27:54;;;;;;;8.93;2.42;;;7.40;99.90;;;;;;5038239;28;20033;-65
2021/03/14 08:30:32;;;;;;;8.90;2.13;;;7.50;99.90;;;;;;5033066;28;20504;-65
2021/03/14 08:33:21;;;;;;;15.73;3.42;;;7.60;99.90;;;;;;5032002;28;20040;-65
2021/03/14 08:35:49;;;;;;;13.32;1.80;;;7.50;99.90;;;;;;5033447;28;20032;-65
2021/03/14 08:38:41;;;;;;;13.55;2.13;;;7.60;99.90;;;;;;5050802;28;20095;-65
2021/03/14 08:41:26;;;;;;;3.90;1.33;;;7.50;99.90;;;;;;5035732;28;20550;-65
2021/03/14 08:44:06;;;;;;;7.88;2.40;;;7.60;99.90;;;;;;5029820;28;20450;-65
2021/03/14 08:46:49;;;;;;;9.13;1.40;;;7.70;99.90;;;;;;5033520;28;20037;-64
2021/03/14 08:49:19;;;;;;;15.25;1.80;;;7.80;99.90;;;;;;5037868;28;20056;-65
2021/03/14 08:51:46;;;;;;;16.27;2.65;;;7.80;99.90;;;;;;5033471;28;20033;-65
2021/03/14 08:54:13;;;;;;;11.70;2.45;;;7.80;99.90;;;;;;5027123;28;20149;-65
2021/03/14 08:56:38;;;;;;;9.70;1.92;;;7.80;99.90;;;;;;5034880;28;20040;-65
2021/03/14 08:59:14;;;;;;;10.15;2.40;;;7.70;99.90;;;;;;5039486;28;20029;-66
2021/03/14 09:01:42;;;;;;;7.97;1.77;;;7.60;99.90;;;;;;5039555;28;20037;-65
2021/03/14 09:04:18;;;;;;;5.28;1.50;;;7.60;99.90;;;;;;5040032;28;20476;-66
2021/03/14 09:06:44;;;;;;;10.48;2.35;;;7.80;99.90;;;;;;5037063;28;20501;-66
2021/03/14 09:09:12;;;;;;;11.05;1.85;;;8.00;99.90;;;;;;5038841;28;20686;-66
2021/03/14 09:11:39;;;;;;;9.20;2.40;;;8.20;99.90;;;;;;5039064;28;20037;-66
2021/03/14 09:14:43;;;;;;;6.93;1.92;;;8.40;99.90;;;;;;5035917;28;20083;-66
2021/03/14 09:17:17;;;;;;;10.05;2.08;;;8.60;99.90;;;;;;5005987;28;20041;-66
2021/03/14 09:19:56;;;;;;;4.97;0.98;;;8.80;99.90;;;;;;5039788;28;20029;-67
2021/03/14 09:22:23;;;;;;;12.60;2.35;;;8.80;99.90;;;;;;5038363;28;20041;-66
2021/03/14 09:24:51;;;;;;;7.50;1.20;;;8.80;99.90;;;;;;5035842;28;20033;-66
2021/03/14 09:27:23;;;;;;;14.18;1.75;;;8.80;99.90;;;;;;5038799;28;20117;-65
2021/03/14 09:29:58;;;;;;;7.82;1.35;;;8.60;99.90;;;;;;5042371;28;20040;-66
2021/03/14 09:32:33;;;;;;;6.72;1.10;;;8.60;99.90;;;;;;5035354;28;20033;-66
2021/03/14 09:35:18;;;;;;;15.82;1.65;;;8.70;99.90;;;;;;5034607;28;20087;-66
2021/03/14 09:37:49;;;;;;;7.97;1.17;;;8.90;99.90;;;;;;5038546;28;20033;-67
2021/03/14 09:40:18;;;;;;;11.80;1.20;;;9.30;99.90;;;;;;5040427;28;20033;-66
2021/03/14 09:42:46;;;;;;;4.97;0.73;;;9.40;99.90;;;;;;5041100;28;20044;-67
2021/03/14 09:45:19;;;;;;;5.50;0.43;;;9.30;99.90;;;;;;5041107;28;20037;-66
2021/03/14 09:47:57;;;;;;;2.42;0.77;;;8.90;99.90;;;;;;5039972;28;20102;-66
2021/03/14 09:50:23;;;;;;;2.50;0.45;;;8.60;99.90;;;;;;5035211;28;20569;-65
2021/03/14 09:52:48;;;;;;;4.55;0.68;;;8.20;99.90;;;;;;5040986;28;20187;-66
2021/03/14 09:55:45;;;;;;;8.07;1.20;;;7.90;99.90;;;;;;5040224;28;20284;-66
2021/03/14 09:58:15;;;;;;;9.52;1.50;;;7.70;99.90;;;;;;5017437;28;20033;-66
2021/03/14 10:00:43;;;;;;;6.97;2.03;;;7.80;99.90;;;;;;5040664;28;20481;-66
2021/03/14 10:03:11;;;;;;;15.48;1.30;;;7.80;99.90;;;;;;5041065;28;20509;-66
2021/03/14 10:05:45;;;;;;;9.13;1.15;;;7.90;99.90;;;;;;5042896;28;20505;-66
2021/03/14 10:08:18;;;;;;;6.38;1.02;;;8.00;99.90;;;;;;5040886;28;20375;-66
2021/03/14 10:10:45;;;;;;;12.60;1.80;;;8.10;99.90;;;;;;5038357;28;20674;-66
2021/03/14 10:13:12;;;;;;;17.42;3.45;;;8.10;99.90;;;;;;5040830;28;20049;-65
2021/03/14 10:15:38;;;;;;;11.38;1.23;;;8.30;99.90;;;;;;5041097;28;20503;-66
2021/03/14 10:18:04;;;;;;;7.25;1.00;;;8.30;99.90;;;;;;5039657;28;20054;-65
2021/03/14 10:20:31;;;;;;;7.45;1.05;;;8.50;99.90;;;;;;5046152;28;20079;-65
2021/03/14 10:23:01;;;;;;;6.68;1.73;;;8.60;99.90;;;;;;5038835;28;20049;-65
2021/03/14 10:25:28;;;;;;;;;;;8.70;99.90;;;;;;5034374;28;20033;-66
2021/03/14 10:28:17;;;;;;;5.15;0.95;;;8.80;99.90;;;;;;5038355;28;19964;-69
2021/03/14 10:30:45;;;;;;;10.52;1.80;;;8.90;99.90;;;;;;5040331;28;20041;-64
2021/03/14 10:33:16;;;;;;;15.52;1.60;;;9.00;99.90;;;;;;5040002;28;20041;-66
2021/03/14 10:35:43;;;;;;;9.45;1.50;;;9.00;99.90;;;;;;5041083;28;20026;-66
2021/03/14 10:38:20;;;;;;;12.90;1.30;;;9.00;99.90;;;;;;5039899;28;20029;-66
2021/03/14 10:40:47;;;;;;;3.28;0.68;;;9.10;99.90;;;;;;5038641;28;20120;-66
2021/03/14 10:43:25;;;;;;;10.88;1.38;;;9.20;99.90;;;;;;5038299;28;20040;-67
2021/03/14 10:45:52;;;;;;;7.18;1.42;;;9.10;99.90;;;;;;5031123;28;20032;-67
2021/03/14 10:48:24;;;;;;;9.05;1.05;;;9.20;99.90;;;;;;5044373;28;20025;-65
2021/03/14 10:51:02;;;;;;;6.20;1.58;;;9.10;99.90;;;;;;5030072;28;20040;-66
2021/03/14 10:53:28;;;;;;;8.65;1.95;;;9.10;99.90;;;;;;5035867;28;20028;-67
2021/03/14 10:56:05;;;;;;;11.18;1.02;;;9.00;99.90;;;;;;5042282;28;20111;-66
2021/03/14 10:58:41;;;;;;;17.70;2.38;;;9.10;99.90;;;;;;5033639;28;20473;-66
2021/03/14 11:01:10;;;;;;;14.43;1.75;;;9.20;99.90;;;;;;5041863;28;20521;-65
2021/03/14 11:03:38;;;;;;;6.63;1.10;;;9.10;99.90;;;;;;5042081;28;20128;-65
2021/03/14 11:06:25;;;;;;;15.45;2.03;;;9.10;99.90;;;;;;5039817;28;20481;-65
2021/03/14 11:08:57;;;;;;;16.17;1.40;;;9.10;99.90;;;;;;5037596;28;20121;-67
2021/03/14 11:11:35;;;;;;;8.90;1.75;;;9.20;99.90;;;;;;5034930;28;20039;-66
2021/03/14 11:14:00;;;;;;;6.15;1.17;;;9.30;99.90;;;;;;5033727;28;20117;-67
2021/03/14 11:16:26;;;;;;;3.47;1.05;;;9.40;99.90;;;;;;5036629;28;20124;-66
2021/03/14 11:19:04;;;;;;;6.72;1.38;;;9.40;99.90;;;;;;5030368;28;20038;-67
2021/03/14 11:21:30;;;;;;;6.80;1.63;;;9.40;99.90;;;;;;5026458;28;20422;-66
2021/03/14 11:23:56;;;;;;;8.18;1.10;;;9.30;99.90;;;;;;5028919;28;20029;-66
2021/03/14 11:26:21;;;;;;;11.95;1.23;;;9.30;99.90;;;;;;5026613;28;20113;-66
2021/03/14 11:28:47;;;;;;;12.68;1.75;;;9.20;99.90;;;;;;5025145;28;20063;-67
2021/03/14 11:31:13;;;;;;;5.38;1.67;;;9.20;99.90;;;;;;5027059;28;20033;-67
2021/03/14 11:33:39;;;;;;;12.65;1.17;;;9.40;99.90;;;;;;5025082;28;20038;-66
2021/03/14 11:36:05;;;;;;;8.38;1.83;;;9.70;99.90;;;;;;5039501;28;20044;-66
2021/03/14 11:38:30;;;;;;;9.25;1.00;;;9.80;99.90;;;;;;5037242;28;20037;-65
2021/03/14 11:40:56;;;;;;;6.82;0.88;;;9.80;99.90;;;;;;5028540;28;20061;-66
2021/03/14 11:43:26;;;;;;;8.95;1.45;;;9.80;99.90;;;;;;5024709;28;20582;-65
2021/03/14 11:45:52;;;;;;;6.43;1.23;;;9.70;99.90;;;;;;5025946;28;20223;-66
2021/03/14 11:48:20;;;;;;;9.00;1.50;;;9.60;99.90;;;;;;5030949;28;20529;-66
2021/03/14 11:50:45;;;;;;;4.88;0.82;;;9.50;99.90;;;;;;5025408;28;20037;-67
2021/03/14 11:53:11;;;;;;;5.97;0.90;;;9.50;99.90;;;;;;5028195;28;20037;-65
2021/03/14 11:55:37;;;;;;;9.30;1.67;;;9.40;99.90;;;;;;5036636;28;20037;-65
2021/03/14 11:58:03;;;;;;;10.20;1.40;;;9.50;99.90;;;;;;5037521;28;20072;-66
2021/03/14 12:00:30;;;;;;;6.72;0.98;;;9.30;99.90;;;;;;5038355;28;20067;-66
2021/03/14 12:02:55;;;;;;;9.35;1.33;;;9.30;99.90;;;;;;5034394;28;20030;-66
2021/03/14 12:05:21;;;;;;;5.90;1.15;;;9.30;99.90;;;;;;5039234;28;20037;-65
2021/03/14 12:07:47;;;;;;;8.43;1.00;;;9.40;99.90;;;;;;5033650;28;20053;-66
2021/03/14 12:10:13;;;;;;;15.32;1.90;;;9.60;99.90;;;;;;5026305;28;20037;-67
2021/03/14 12:12:39;;;;;;;6.10;1.13;;;9.80;99.90;;;;;;5027706;28;20038;-66
2021/03/14 12:15:05;;;;;;;8.05;1.13;;;9.90;99.90;;;;;;5026032;28;20040;-66
2021/03/14 12:17:30;;;;;;;3.90;1.10;;;9.90;99.90;;;;;;5026921;28;20113;-67
2021/03/14 12:19:56;;;;;;;6.45;0.75;;;9.80;99.90;;;;;;5037287;28;20119;-66
2021/03/14 12:22:22;;;;;;;3.83;0.82;;;9.80;99.90;;;;;;5032335;28;20053;-66
2021/03/14 12:24:47;;;;;;;8.85;1.60;;;9.90;99.90;;;;;;5038322;28;20036;-66
2021/03/14 12:27:13;;;;;;;9.65;1.17;;;10.00;99.90;;;;;;5039857;28;20037;-66
2021/03/14 12:29:38;;;;;;;14.43;1.40;;;10.00;99.90;;;;;;5034791;28;20672;-66
2021/03/14 12:32:05;;;;;;;12.50;1.42;;;10.00;99.90;;;;;;5027153;28;20029;-66
2021/03/14 12:34:31;;;;;;;5.88;0.90;;;10.00;99.90;;;;;;5030421;28;20038;-66
2021/03/14 12:36:57;;;;;;;10.98;1.65;;;9.90;99.90;;;;;;5026397;28;20045;-66
2021/03/14 12:39:22;;;;;;;8.10;1.42;;;9.80;99.90;;;;;;5025285;28;20571;-65
2021/03/14 12:41:48;;;;;;;6.70;1.08;;;10.00;99.90;;;;;;5026246;28;20064;-65
2021/03/14 12:44:14;;;;;;;6.20;1.02;;;10.10;99.90;;;;;;5030087;28;20053;-67
2021/03/14 12:46:40;;;;;;;5.78;0.73;;;10.00;99.90;;;;;;5037944;28;20158;-66
2021/03/14 12:49:06;;;;;;;9.32;1.52;;;10.10;99.90;;;;;;5033552;28;20119;-66
2021/03/14 12:51:32;;;;;;;6.72;0.80;;;10.20;99.90;;;;;;5034789;28;20040;-66
2021/03/14 12:53:58;;;;;;;6.85;1.23;;;10.10;99.90;;;;;;5035072;28;20025;-66
2021/03/14 12:56:24;;;;;;;9.00;1.55;;;10.00;99.90;;;;;;5026466;28;20759;-66
2021/03/14 12:58:51;;;;;;;8.18;1.13;;;10.00;99.90;;;;;;5033316;28;20080;-65
2021/03/14 13:01:16;;;;;;;9.90;2.72;;;9.90;99.90;;;;;;5031562;28;20084;-66
2021/03/14 13:03:42;;;;;;;10.95;1.00;;;9.90;99.90;;;;;;5033299;28;20497;-64